Time;durP1;ratioP1;P1;durP2;ratioP2;P2;SDS_P1;SDS_P2;PMS_P1;PMS_P2;Temp;Humidity;BMP_temperature;BMP_pressure;BME280_temperature;BME280_humidity;BME280_pressure;Samples;Min_cycle;Max_cycle;Signal;HPM_P1;HPM_P2
2023/01/12 00:02:15;;;;;;;19.50;6.28;;;;;;;9.59;100.00;100956.31;5111703;28;20474;-82
2023/01/12 00:04:41;;;;;;;20.15;5.63;;;;;;;9.52;100.00;100936.22;5111271;28;20020;-82
2023/01/12 00:07:08;;;;;;;17.25;4.75;;;;;;;9.55;100.00;100948.56;5111659;28;20026;-82
2023/01/12 00:09:34;;;;;;;17.55;5.60;;;;;;;9.55;100.00;100938.69;5111537;28;20040;-82
2023/01/12 00:12:04;;;;;;;27.85;5.00;;;;;;;9.52;100.00;100925.47;5111443;28;20042;-81
2023/01/12 00:14:31;;;;;;;15.77;5.72;;;;;;;9.48;100.00;100929.34;5111280;28;20039;-80
2023/01/12 00:16:57;;;;;;;17.83;5.45;;;;;;;9.53;100.00;100927.22;5111028;28;20045;-81
2023/01/12 00:19:22;;;;;;;14.02;4.53;;;;;;;9.57;100.00;100931.38;5111059;28;20028;-81
2023/01/12 00:22:01;;;;;;;14.15;3.95;;;;;;;9.61;100.00;100914.06;5093118;28;20027;-82
2023/01/12 00:24:33;;;;;;;11.07;4.38;;;;;;;9.56;100.00;100910.88;5111287;28;20421;-82
2023/01/12 00:27:01;;;;;;;14.07;4.57;;;;;;;9.56;100.00;100900.13;5112272;28;20483;-81
2023/01/12 00:29:27;;;;;;;14.02;3.80;;;;;;;9.59;100.00;100907.09;5111546;28;20483;-81
2023/01/12 00:31:54;;;;;;;18.05;4.63;;;;;;;9.55;100.00;100898.41;5112176;28;20020;-81
2023/01/12 00:34:20;;;;;;;10.75;3.58;;;;;;;9.56;100.00;100899.28;5111109;28;20092;-81
2023/01/12 00:36:46;;;;;;;9.57;3.83;;;;;;;9.50;100.00;100878.25;5112251;28;20431;-81
2023/01/12 00:39:12;;;;;;;12.35;4.57;;;;;;;9.60;100.00;100873.91;5135598;28;20015;-82
2023/01/12 00:47:07;;;;;;;11.13;4.28;;;;;;;9.56;100.00;100851.81;5110898;28;20046;-82
2023/01/12 00:49:34;;;;;;;12.63;4.75;;;;;;;9.55;100.00;100849.22;5110552;28;20020;-82
2023/01/12 00:51:59;;;;;;;10.27;3.90;;;;;;;9.52;100.00;100844.94;5110831;28;20047;-82
2023/01/12 00:54:24;;;;;;;10.18;3.65;;;;;;;9.50;100.00;100846.03;5110586;28;20020;-82
2023/01/12 00:56:50;;;;;;;10.55;3.65;;;;;;;9.47;100.00;100836.38;5091888;28;20062;-81
2023/01/12 00:59:15;;;;;;;17.48;4.05;;;;;;;9.43;100.00;100820.59;5110407;28;20016;-82
2023/01/12 01:01:41;;;;;;;11.10;3.78;;;;;;;9.40;100.00;100828.88;5092030;28;20028;-81
2023/01/12 01:04:06;;;;;;;11.07;3.95;;;;;;;9.39;100.00;100832.53;5110200;28;20015;-82
2023/01/12 01:06:32;;;;;;;13.88;3.85;;;;;;;9.37;100.00;100824.59;5092073;28;20107;-82
2023/01/12 01:08:57;;;;;;;21.23;5.13;;;;;;;9.39;100.00;100841.41;5110309;28;20023;-81
2023/01/12 01:11:23;;;;;;;10.57;4.82;;;;;;;9.30;100.00;100826.00;5110455;28;20027;-81
2023/01/12 01:13:48;;;;;;;16.50;5.00;;;;;;;9.35;100.00;100858.75;5110556;28;20620;-81
2023/01/12 01:16:16;;;;;;;23.15;6.22;;;;;;;9.36;100.00;100848.88;5110377;28;20027;-82
2023/01/12 01:18:42;;;;;;;22.90;5.47;;;;;;;9.35;100.00;100857.88;5092147;28;20339;-81
2023/01/12 01:21:09;;;;;;;16.55;5.57;;;;;;;9.30;100.00;100844.78;5109898;28;20035;-81
2023/01/12 01:23:36;;;;;;;23.70;6.07;;;;;;;9.29;100.00;100837.72;5110047;28;20402;-82
2023/01/12 01:26:04;;;;;;;24.55;7.20;;;;;;;9.26;100.00;100819.16;5110516;28;20028;-82
2023/01/12 01:28:29;;;;;;;16.13;5.40;;;;;;;9.23;100.00;100859.63;5110119;28;20102;-83
2023/01/12 01:31:03;;;;;;;19.17;6.50;;;;;;;9.24;100.00;100834.50;5110309;28;20030;-82
2023/01/12 01:33:28;;;;;;;19.30;5.22;;;;;;;9.23;100.00;100843.53;5109969;28;20051;-82
2023/01/12 01:35:55;;;;;;;15.18;5.90;;;;;;;9.18;100.00;100824.19;5110078;28;20119;-81
2023/01/12 01:38:21;;;;;;;22.30;5.63;;;;;;;9.26;100.00;100840.63;5110359;28;20118;-82
2023/01/12 01:40:46;;;;;;;17.58;5.95;;;;;;;9.19;100.00;100816.06;5110603;28;20487;-82
2023/01/12 01:43:14;;;;;;;19.35;5.65;;;;;;;9.25;100.00;100814.75;5110716;28;20028;-81
2023/01/12 01:45:44;;;;;;;19.95;5.43;;;;;;;9.27;100.00;100823.53;5110662;28;20055;-80
2023/01/12 01:48:13;;;;;;;19.02;5.30;;;;;;;9.22;100.00;100836.44;5117115;28;20023;-83
2023/01/12 01:50:47;;;;;;;21.27;5.72;;;;;;;9.25;100.00;100826.34;5121797;28;20027;-83
2023/01/12 01:53:18;;;;;;;23.17;5.97;;;;;;;9.29;100.00;100845.78;5122774;28;20020;-82
2023/01/12 01:55:52;;;;;;;20.92;5.60;;;;;;;9.32;100.00;100836.63;5124344;28;20024;-81
2023/01/12 01:58:39;;;;;;;26.05;5.38;;;;;;;9.28;100.00;100863.69;5119745;28;20035;-81
2023/01/12 02:01:06;;;;;;;16.23;5.90;;;;;;;9.29;100.00;100837.72;5120046;28;20027;-81
2023/01/12 02:03:33;;;;;;;21.85;7.15;;;;;;;9.27;100.00;100834.25;5117322;28;20108;-80
2023/01/12 02:05:58;;;;;;;20.92;5.63;;;;;;;9.29;100.00;100824.28;5116762;28;20027;-81
2023/01/12 02:08:45;;;;;;;34.05;6.10;;;;;;;9.32;100.00;100812.47;5116562;28;20141;-81
2023/01/12 02:16:55;;;;;;;19.48;7.22;;;;;;;9.33;100.00;100841.88;5116237;28;20108;-80
2023/01/12 02:19:41;;;;;;;19.95;7.40;;;;;;;9.33;100.00;100835.66;5116388;28;20023;-81
2023/01/12 02:22:27;;;;;;;12.35;5.30;;;;;;;9.33;100.00;100857.97;5116192;28;20430;-80
2023/01/12 02:25:16;;;;;;;22.45;6.72;;;;;;;9.29;100.00;100838.53;5116592;28;20040;-81
2023/01/12 02:28:11;;;;;;;22.90;7.47;;;;;;;9.27;100.00;100847.69;5116377;28;20047;-80
2023/01/12 02:31:18;;;;;;;24.52;8.38;;;;;;;9.32;100.00;100842.88;5012952;28;20080;-80
2023/01/12 02:33:52;;;;;;;27.48;7.30;;;;;;;9.30;100.00;100850.16;4954658;29;20075;-81
2023/01/12 02:36:24;;;;;;;17.65;5.70;;;;;;;9.30;100.00;100847.47;4954770;29;20043;-81
2023/01/12 02:39:15;;;;;;;29.17;8.05;;;;;;;9.29;100.00;100837.72;4954584;29;20235;-81
2023/01/12 02:42:41;;;;;;;22.70;6.70;;;;;;;9.29;100.00;100835.03;4881741;29;20390;-81
2023/01/12 02:45:18;;;;;;;19.33;6.63;;;;;;;9.26;100.00;100837.94;4860723;29;20124;-82
2023/01/12 02:48:04;;;;;;;13.63;5.47;;;;;;;9.19;100.00;100821.41;4860330;29;20109;-81
2023/01/12 02:50:32;;;;;;;16.30;5.22;;;;;;;9.25;100.00;100842.44;4860822;29;20613;-82
2023/01/12 02:53:20;;;;;;;15.00;5.13;;;;;;;9.18;100.00;100840.28;4860434;29;20120;-82
2023/01/12 02:55:46;;;;;;;21.42;5.53;;;;;;;9.26;100.00;100848.69;4860448;29;20049;-82
2023/01/12 02:58:15;;;;;;;17.40;6.30;;;;;;;9.25;100.00;100841.59;4860168;29;20121;-81
2023/01/12 03:00:44;;;;;;;29.98;6.47;;;;;;;9.35;100.00;100837.28;4857445;29;20041;-81
2023/01/12 03:03:10;;;;;;;18.38;5.88;;;;;;;9.30;100.00;100831.34;4857348;29;20080;-81
2023/01/12 03:05:40;;;;;;;15.90;5.20;;;;;;;9.26;100.00;100828.03;4857043;29;20049;-82
2023/01/12 03:08:08;;;;;;;17.60;5.30;;;;;;;9.16;100.00;100818.09;4909638;29;20111;-81
2023/01/12 03:10:40;;;;;;;21.23;5.93;;;;;;;9.26;100.00;100848.69;4937210;28;20045;-81
2023/01/12 03:13:10;;;;;;;16.87;5.27;;;;;;;9.25;100.00;100852.31;4970831;28;20066;-81
2023/01/12 03:15:39;;;;;;;20.30;4.90;;;;;;;9.24;100.00;100850.59;4970667;28;20070;-81
2023/01/12 03:18:30;;;;;;;16.00;4.72;;;;;;;9.24;100.00;100840.72;4979773;28;20502;-81
2023/01/12 03:21:04;;;;;;;12.10;4.90;;;;;;;9.22;100.00;100847.16;5038381;28;20486;-81
2023/01/12 03:23:39;;;;;;;9.48;4.60;;;;;;;9.22;100.00;100848.03;5071957;28;20056;-81
2023/01/12 03:26:09;;;;;;;21.38;4.45;;;;;;;9.27;100.00;100855.72;5071546;28;20716;-81
2023/01/12 03:28:37;;;;;;;21.60;4.50;;;;;;;9.29;100.00;100861.88;5071572;28;20425;-81
2023/01/12 03:31:10;;;;;;;12.88;4.15;;;;;;;9.26;100.00;100838.78;5071968;28;20098;-81
2023/01/12 03:33:41;;;;;;;13.00;4.13;;;;;;;9.28;100.00;100849.41;5071435;28;20111;-81
2023/01/12 03:36:15;;;;;;;14.43;5.18;;;;;;;9.27;100.00;100855.72;5071319;28;20477;-81
2023/01/12 03:38:56;;;;;;;12.52;4.63;;;;;;;9.20;100.00;100859.84;5071900;28;20036;-81
2023/01/12 03:41:36;;;;;;;12.88;4.80;;;;;;;9.24;100.00;100866.69;5072093;28;20032;-81
2023/01/12 03:44:07;;;;;;;11.57;4.88;;;;;;;9.21;100.00;100856.19;5071600;28;20047;-81
2023/01/12 03:46:39;;;;;;;19.33;4.95;;;;;;;9.14;100.00;100871.03;5071445;28;20024;-81
2023/01/12 03:49:18;;;;;;;23.83;5.43;;;;;;;9.20;100.00;100875.94;5071580;28;20131;-81
2023/01/12 03:51:47;;;;;;;22.83;5.70;;;;;;;9.14;100.00;100852.25;5094100;28;20043;-81
2023/01/12 03:54:14;;;;;;;21.95;5.78;;;;;;;9.15;100.00;100851.25;5112054;28;20039;-82
2023/01/12 03:56:43;;;;;;;24.20;7.68;;;;;;;9.11;100.00;100849.78;5111849;28;20032;-83
2023/01/12 03:59:09;;;;;;;25.08;7.10;;;;;;;9.04;100.00;100840.44;5111918;28;20028;-82
2023/01/12 04:01:35;;;;;;;25.35;7.60;;;;;;;8.97;100.00;100844.53;5111833;28;20030;-81
2023/01/12 04:04:01;;;;;;;35.63;8.25;;;;;;;9.03;100.00;100862.88;5111680;28;20106;-81
2023/01/12 04:06:26;;;;;;;22.45;9.00;;;;;;;8.97;100.00;100855.25;5111876;28;20057;-81
2023/01/12 04:08:52;;;;;;;37.00;9.88;;;;;;;8.89;100.00;100838.84;5112092;28;20026;-81
2023/01/12 04:14:01;;;;;;;34.33;10.75;;;;;;;8.87;100.00;100838.94;5111321;28;20055;-81
2023/01/12 04:16:27;;;;;;;42.22;9.75;;;;;;;8.83;100.00;100821.38;5111152;28;20478;-83
2023/01/12 04:18:52;;;;;;;38.35;9.93;;;;;;;8.77;100.00;100832.53;5111247;28;20043;-81
2023/01/12 04:24:02;;;;;;;39.20;11.90;;;;;;;8.83;100.00;100850.88;5111322;28;20460;-81
2023/01/12 04:26:27;;;;;;;31.00;12.23;;;;;;;8.80;100.00;100855.59;5111008;28;20035;-82
2023/01/12 04:28:53;;;;;;;33.00;10.65;;;;;;;8.78;100.00;100847.66;5114893;28;20064;-80
2023/01/12 04:31:18;;;;;;;26.38;8.20;;;;;;;8.86;100.00;100853.34;5111361;28;20046;-80
2023/01/12 04:33:43;;;;;;;24.67;8.35;;;;;;;8.82;100.00;100850.97;5110855;28;20471;-82
2023/01/12 04:36:12;;;;;;;36.67;9.80;;;;;;;8.86;100.00;100856.03;5111045;28;20096;-81
2023/01/12 04:38:39;;;;;;;29.08;8.82;;;;;;;8.84;100.00;100876.72;5111004;28;20102;-81
2023/01/12 04:41:06;;;;;;;30.45;7.35;;;;;;;8.81;100.00;100858.16;5111002;28;20031;-80
2023/01/12 04:43:31;;;;;;;30.23;8.52;;;;;;;8.82;100.00;100856.34;5092453;28;20486;-80
2023/01/12 04:45:57;;;;;;;31.42;8.98;;;;;;;8.83;100.00;100860.75;5111041;28;20034;-83
2023/01/12 04:48:22;;;;;;;38.00;12.65;;;;;;;8.86;100.00;100866.75;5111022;28;20107;-82
2023/01/12 04:50:49;;;;;;;29.38;8.32;;;;;;;8.86;100.00;100868.56;5110288;28;20055;-79
2023/01/12 04:53:15;;;;;;;29.45;10.50;;;;;;;8.89;100.00;100871.03;5111492;28;20030;-81
2023/01/12 04:55:42;;;;;;;39.83;9.63;;;;;;;8.88;100.00;100872.00;5110382;28;20056;-80
2023/01/12 04:58:07;;;;;;;26.80;9.60;;;;;;;8.92;100.00;100878.88;5110764;28;20086;-81
2023/01/12 05:00:33;;;;;;;30.45;7.95;;;;;;;8.94;100.00;100890.34;5110510;28;20490;-80
2023/01/12 05:03:02;;;;;;;22.83;7.93;;;;;;;8.92;100.00;100893.16;5110353;28;20536;-81
2023/01/12 05:05:29;;;;;;;24.65;8.80;;;;;;;8.90;100.00;100913.00;5110361;28;20442;-81
2023/01/12 05:10:42;;;;;;;25.90;8.45;;;;;;;8.86;100.00;100915.03;5110541;28;20097;-81
2023/01/12 05:13:07;;;;;;;23.83;8.05;;;;;;;8.86;100.00;100930.25;5110642;28;20036;-81
2023/01/12 05:15:33;;;;;;;23.35;8.50;;;;;;;8.94;100.00;100936.81;5110292;28;20030;-80
2023/01/12 05:17:58;;;;;;;26.92;8.82;;;;;;;8.92;100.00;100943.25;5110337;28;20020;-80
2023/01/12 05:20:24;;;;;;;24.42;7.88;;;;;;;9.03;100.00;100956.75;5110178;28;20026;-81
2023/01/12 05:22:51;;;;;;;28.45;8.48;;;;;;;9.01;100.00;100940.78;5109907;28;20049;-81
2023/01/12 05:25:17;;;;;;;30.60;7.40;;;;;;;9.12;100.00;100966.84;5110125;28;20019;-80
2023/01/12 05:27:42;;;;;;;37.63;19.42;;;;;;;9.11;100.00;100962.47;5091887;28;20108;-81
2023/01/12 05:30:11;;;;;;;22.80;8.10;;;;;;;9.11;100.00;100971.34;5110636;28;20486;-82
2023/01/12 05:32:37;;;;;;;27.70;8.57;;;;;;;9.22;100.00;100970.63;5110260;28;20024;-81
2023/01/12 05:35:07;;;;;;;30.20;8.07;;;;;;;9.28;100.00;100972.88;5110510;28;20053;-81
2023/01/12 05:37:33;;;;;;;26.33;7.60;;;;;;;9.35;100.00;100968.78;5110211;28;20081;-81
2023/01/12 05:39:58;;;;;;;20.40;6.65;;;;;;;9.32;100.00;100977.06;5110730;28;20027;-80
2023/01/12 05:45:09;;;;;;;13.75;6.22;;;;;;;9.39;100.00;100975.63;5111369;28;20518;-82
2023/01/12 05:47:35;;;;;;;15.02;5.70;;;;;;;9.37;100.00;100958.78;5132041;28;20072;-81
2023/01/12 05:50:01;;;;;;;13.13;4.80;;;;;;;9.33;100.00;100946.56;5133545;28;20063;-82
2023/01/12 05:52:26;;;;;;;11.10;5.63;;;;;;;9.36;100.00;100961.59;5118968;28;20515;-81
2023/01/12 05:54:52;;;;;;;23.67;7.25;;;;;;;9.36;100.00;100967.81;5111472;28;20063;-81
2023/01/12 05:57:17;;;;;;;17.65;6.72;;;;;;;9.38;100.00;100965.91;5111843;28;20034;-81
2023/01/12 05:59:42;;;;;;;15.27;5.80;;;;;;;9.34;100.00;100969.75;5110548;28;20030;-80
2023/01/12 06:02:10;;;;;;;13.45;5.75;;;;;;;9.31;100.00;100978.03;5109972;28;20027;-81
2023/01/12 06:04:37;;;;;;;12.38;5.85;;;;;;;9.27;100.00;100968.47;5109878;28;20101;-81
2023/01/12 06:07:03;;;;;;;13.93;4.53;;;;;;;9.27;100.00;100984.56;5109781;28;20023;-81
2023/01/12 06:09:28;;;;;;;7.93;4.57;;;;;;;9.30;100.00;100990.56;5091941;28;20130;-80
2023/01/12 06:14:38;;;;;;;14.82;5.15;;;;;;;9.36;100.00;101009.94;5110786;28;20093;-81
2023/01/12 06:17:04;;;;;;;10.18;5.40;;;;;;;9.35;100.00;101022.47;5110728;28;20024;-80
2023/01/12 06:19:29;;;;;;;11.90;6.53;;;;;;;9.42;100.00;101015.69;5109338;28;20034;-81
2023/01/12 06:21:58;;;;;;;19.88;8.43;;;;;;;9.49;100.00;101016.13;5109773;28;20529;-81
2023/01/12 06:24:24;;;;;;;9.55;5.57;;;;;;;9.59;100.00;101015.38;5109642;28;20031;-82
2023/01/12 06:26:49;;;;;;;9.88;4.28;;;;;;;9.59;100.00;101015.38;5109424;28;20081;-82
2023/01/12 06:29:15;;;;;;;12.02;4.45;;;;;;;9.58;100.00;101010.09;5109530;28;20019;-81
2023/01/12 06:31:40;;;;;;;9.82;4.25;;;;;;;9.57;99.32;101005.72;5109132;28;20039;-81
2023/01/12 06:34:08;;;;;;;5.53;2.97;;;;;;;9.64;98.51;101009.66;5109581;28;20019;-80
2023/01/12 06:36:34;;;;;;;10.85;3.63;;;;;;;9.59;98.15;101001.94;5112556;28;20115;-80
2023/01/12 06:39:01;;;;;;;5.85;3.15;;;;;;;9.56;97.78;101006.69;5113339;28;20023;-82
2023/01/12 06:44:10;;;;;;;14.73;5.57;;;;;;;9.51;95.82;101015.03;5113992;28;20504;-81
2023/01/12 06:46:36;;;;;;;10.63;3.88;;;;;;;9.37;95.93;101007.13;5094333;28;20118;-82
2023/01/12 06:49:01;;;;;;;11.45;5.15;;;;;;;9.47;96.02;101016.25;5113282;28;20027;-81
2023/01/12 06:51:27;;;;;;;10.63;4.80;;;;;;;9.35;95.54;101011.75;5112632;28;20048;-82
2023/01/12 06:53:53;;;;;;;7.10;4.18;;;;;;;9.35;95.30;101019.78;5113049;28;20016;-82
2023/01/12 06:56:18;;;;;;;7.20;3.10;;;;;;;9.27;94.87;101020.31;5112699;28;20114;-81
2023/01/12 06:58:44;;;;;;;10.75;3.65;;;;;;;9.07;95.07;101034.25;5112823;28;20015;-81
2023/01/12 07:01:11;;;;;;;5.72;2.55;;;;;;;9.02;95.27;101049.81;5112624;28;20058;-81
2023/01/12 07:03:36;;;;;;;4.68;3.47;;;;;;;8.87;95.83;101055.38;5112765;28;20026;-80
2023/01/12 07:06:02;;;;;;;11.30;3.65;;;;;;;8.85;96.07;101049.22;5112630;28;20027;-82
2023/01/12 07:08:27;;;;;;;11.77;3.50;;;;;;;8.83;97.36;101043.13;5094145;28;20016;-82
2023/01/12 07:10:53;;;;;;;5.32;3.20;;;;;;;8.94;97.48;101043.25;5112767;28;20035;-83
2023/01/12 07:13:19;;;;;;;12.05;3.72;;;;;;;8.93;96.27;101038.88;5112356;28;20036;-81
2023/01/12 07:15:44;;;;;;;11.07;2.60;;;;;;;8.87;93.81;101028.56;5112423;28;20054;-82
2023/01/12 07:18:10;;;;;;;8.88;2.40;;;;;;;8.75;93.55;101016.81;5112602;28;20031;-81
2023/01/12 07:20:35;;;;;;;6.57;2.90;;;;;;;8.60;93.13;101032.09;5112477;28;20035;-82
2023/01/12 07:23:01;;;;;;;10.68;3.05;;;;;;;8.52;93.02;101023.72;5112359;28;20027;-81
2023/01/12 07:25:26;;;;;;;6.70;2.55;;;;;;;8.34;92.50;101024.94;5112519;28;20036;-82
2023/01/12 07:27:54;;;;;;;4.70;2.67;;;;;;;8.20;92.75;101028.47;5112731;28;20386;-82
2023/01/12 07:30:22;;;;;;;5.63;2.80;;;;;;;8.15;93.38;101044.00;5112169;28;20061;-80
2023/01/12 07:32:48;;;;;;;5.90;2.70;;;;;;;8.03;94.02;101046.63;5112241;28;20027;-82
2023/01/12 07:35:15;;;;;;;7.28;3.08;;;;;;;7.98;94.67;101059.44;5112288;28;20023;-81
2023/01/12 07:37:48;;;;;;;10.82;4.20;;;;;;;7.83;95.69;101060.44;5112302;28;20091;-82
2023/01/12 07:40:13;;;;;;;7.25;4.10;;;;;;;7.88;96.51;101069.88;5112196;28;20023;-80
2023/01/12 07:42:39;;;;;;;10.77;4.80;;;;;;;7.90;97.27;101075.13;5112231;28;20038;-82
2023/01/12 07:45:05;;;;;;;9.23;3.70;;;;;;;8.02;97.56;101077.88;5111927;28;20030;-81
2023/01/12 07:47:30;;;;;;;10.27;7.13;;;;;;;7.96;98.08;101077.41;5111467;28;20031;-81
2023/01/12 07:49:56;;;;;;;12.13;5.72;;;;;;;7.99;97.93;101082.56;5112021;28;20024;-81
2023/01/12 07:52:21;;;;;;;17.02;7.00;;;;;;;8.01;98.06;101081.53;5111831;28;20047;-82
2023/01/12 07:54:47;;;;;;;11.43;7.18;;;;;;;8.01;98.12;101075.31;5112392;28;20430;-82
2023/01/12 07:57:12;;;;;;;3.47;2.97;;;;;;;7.96;97.75;101058.66;5111766;28;20130;-81
2023/01/12 07:59:38;;;;;;;5.38;3.35;;;;;;;8.06;97.97;101083.91;5112200;28;20024;-81
2023/01/12 08:02:04;;;;;;;3.17;2.47;;;;;;;8.00;96.89;101070.91;5112095;28;20031;-81
2023/01/12 08:04:29;;;;;;;5.20;2.78;;;;;;;8.01;96.65;101075.31;5112037;28;20023;-82
2023/01/12 08:06:55;;;;;;;3.97;2.67;;;;;;;7.99;95.75;101071.88;5111681;28;20040;-82
2023/01/12 08:09:21;;;;;;;3.97;2.75;;;;;;;7.87;94.50;101073.50;5111695;28;20031;-81
2023/01/12 08:11:46;;;;;;;6.40;3.83;;;;;;;7.87;94.23;101056.56;5111797;28;20031;-81
2023/01/12 08:14:22;;;;;;;5.43;2.97;;;;;;;7.79;93.77;101070.47;5111570;28;20033;-81
2023/01/12 08:16:49;;;;;;;7.15;2.97;;;;;;;7.77;93.92;101063.50;5111630;28;20026;-80
2023/01/12 08:19:20;;;;;;;4.00;2.55;;;;;;;7.83;93.57;101063.09;5111497;28;20028;-81
2023/01/12 08:21:51;;;;;;;3.90;2.60;;;;;;;7.70;93.11;101048.75;5112067;28;20531;-82
2023/01/12 08:24:23;;;;;;;3.35;2.58;;;;;;;7.59;91.20;101050.28;5111343;28;20027;-81
2023/01/12 08:26:50;;;;;;;3.08;2.60;;;;;;;7.56;90.04;101055.81;5111401;28;20091;-81
2023/01/12 08:29:48;;;;;;;3.38;2.25;;;;;;;7.60;91.22;101070.75;5111377;28;20019;-81
2023/01/12 08:32:16;;;;;;;3.20;2.05;;;;;;;7.57;91.37;101065.59;5008680;28;20065;-82
2023/01/12 08:34:45;;;;;;;3.95;2.33;;;;;;;7.65;91.41;101079.34;5008656;28;20461;-81
2023/01/12 08:37:13;;;;;;;4.80;2.88;;;;;;;7.68;90.92;101078.28;5008536;28;20046;-82
2023/01/12 08:39:39;;;;;;;8.63;3.67;;;;;;;7.54;91.13;101075.63;5008299;28;20041;-80
2023/01/12 08:42:04;;;;;;;6.65;3.80;;;;;;;7.56;90.64;101090.63;5008146;28;20033;-81
2023/01/12 08:44:34;;;;;;;6.60;4.50;;;;;;;7.65;91.52;101095.41;5008151;28;20034;-81
2023/01/12 08:47:00;;;;;;;8.00;4.53;;;;;;;7.55;91.55;101104.94;5008150;28;20033;-82
2023/01/12 08:49:28;;;;;;;15.20;4.88;;;;;;;7.60;91.53;101107.34;5008216;28;20760;-83
2023/01/12 08:51:53;;;;;;;10.75;5.63;;;;;;;7.72;91.59;101105.72;5007979;28;20496;-82
2023/01/12 08:54:20;;;;;;;8.98;5.07;;;;;;;7.79;91.47;101107.94;4991472;28;20022;-82
2023/01/12 08:56:46;;;;;;;11.73;5.28;;;;;;;7.78;92.05;101105.34;5007787;28;20402;-81
2023/01/12 08:59:12;;;;;;;10.85;6.00;;;;;;;7.79;91.71;101104.41;5007286;28;20030;-81
2023/01/12 09:01:38;;;;;;;16.15;8.80;;;;;;;7.71;90.83;101095.97;5007905;28;20103;-82
2023/01/12 09:04:04;;;;;;;39.80;22.83;;;;;;;7.71;89.93;101109.34;5008125;28;20110;-82
2023/01/12 09:06:34;;;;;;;11.88;7.03;;;;;;;7.60;89.95;101108.22;5007697;28;20049;-82
2023/01/12 09:09:01;;;;;;;9.55;5.53;;;;;;;7.63;89.65;101118.75;5077305;28;20432;-82
2023/01/12 09:11:28;;;;;;;9.02;5.07;;;;;;;7.61;90.10;101125.16;5110625;28;20024;-81
2023/01/12 09:13:57;;;;;;;13.25;7.40;;;;;;;7.44;90.32;101107.44;5110840;28;20085;-82
2023/01/12 09:16:24;;;;;;;11.18;5.82;;;;;;;7.50;90.18;101124.91;5110304;28;20518;-81
2023/01/12 09:18:50;;;;;;;13.98;6.43;;;;;;;7.54;89.35;101123.78;5110869;28;20020;-81
2023/01/12 09:21:19;;;;;;;12.85;6.65;;;;;;;7.41;89.80;101118.31;5110051;28;20028;-81
2023/01/12 09:23:45;;;;;;;9.98;6.25;;;;;;;7.51;89.48;101123.97;5110349;28;20027;-81
2023/01/12 09:26:13;;;;;;;8.23;4.93;;;;;;;7.60;89.09;101129.63;5110476;28;20050;-81
2023/01/12 09:28:40;;;;;;;12.88;7.03;;;;;;;7.62;89.40;101126.84;5110496;28;20106;-81
2023/01/12 09:31:11;;;;;;;12.63;6.15;;;;;;;7.58;89.70;101128.84;5092167;28;20502;-81
2023/01/12 09:33:38;;;;;;;11.63;5.50;;;;;;;7.58;89.25;101134.19;5110668;28;20042;-82
2023/01/12 09:36:06;;;;;;;10.15;6.18;;;;;;;7.59;87.98;101119.88;5110725;28;20034;-81
2023/01/12 09:38:34;;;;;;;9.70;5.82;;;;;;;7.38;88.85;101123.00;5092107;28;20043;-81
2023/01/12 09:41:08;;;;;;;10.02;6.07;;;;;;;7.49;89.13;101131.25;5110737;28;20295;-81
2023/01/12 09:49:36;;;;;;;9.98;6.97;;;;;;;7.20;89.60;101113.38;5135986;28;20043;-81
2023/01/12 09:52:23;;;;;;;14.68;6.68;;;;;;;7.15;89.77;101120.84;5113033;28;20044;-81
2023/01/12 09:54:51;;;;;;;11.77;6.90;;;;;;;7.18;89.94;101117.97;5112530;28;20028;-83
2023/01/12 09:57:45;;;;;;;16.70;8.82;;;;;;;7.18;90.56;101110.81;5111595;28;20020;-82
2023/01/12 10:00:12;;;;;;;9.75;6.30;;;;;;;7.08;90.42;101093.59;5110159;28;20036;-81
2023/01/12 10:02:44;;;;;;;14.73;6.55;;;;;;;7.10;90.45;101094.34;5109766;28;20024;-82
2023/01/12 10:05:46;;;;;;;13.05;7.50;;;;;;;7.09;90.75;101074.75;5109800;28;20031;-82
2023/01/12 10:08:21;;;;;;;12.57;7.82;;;;;;;7.17;90.18;101085.00;5109923;28;20036;-80
2023/01/12 10:11:16;;;;;;;10.27;5.82;;;;;;;6.94;90.63;101082.88;5113854;28;20039;-83
2023/01/12 10:13:41;;;;;;;12.10;7.20;;;;;;;7.00;90.61;101078.00;5010775;28;20049;-81
2023/01/12 10:16:15;;;;;;;11.15;7.03;;;;;;;6.99;90.95;101099.47;5010753;28;20501;-80
2023/01/12 10:18:46;;;;;;;10.52;5.60;;;;;;;6.88;90.71;101081.38;5010834;28;20513;-82
2023/01/12 10:21:13;;;;;;;9.90;6.07;;;;;;;7.04;90.69;101092.03;5010965;28;20145;-81
2023/01/12 10:23:38;;;;;;;15.32;7.38;;;;;;;7.04;90.27;101086.69;5010812;28;20401;-81
2023/01/12 10:26:25;;;;;;;12.05;7.32;;;;;;;7.11;90.63;101088.06;5010937;28;20045;-81
2023/01/12 10:28:53;;;;;;;10.20;6.45;;;;;;;7.01;90.14;101076.19;5010730;28;20042;-83
2023/01/12 10:31:22;;;;;;;13.27;7.03;;;;;;;6.85;90.29;101078.91;5011259;28;20434;-82
2023/01/12 10:34:10;;;;;;;12.98;6.50;;;;;;;6.86;90.01;101083.31;5010465;28;20133;-82
2023/01/12 10:36:42;;;;;;;9.45;6.65;;;;;;;6.80;89.80;101072.09;5010622;28;20072;-81
2023/01/12 10:39:37;;;;;;;17.42;9.40;;;;;;;6.74;90.12;101078.69;5010366;28;20033;-82
2023/01/12 10:45:13;;;;;;;15.00;9.32;;;;;;;6.69;91.02;101085.25;5011117;28;20049;-82
2023/01/12 10:47:41;;;;;;;15.07;7.87;;;;;;;6.77;90.46;101073.16;5010822;28;20080;-81
2023/01/12 10:50:35;;;;;;;10.77;6.50;;;;;;;6.72;89.70;101079.72;5040554;28;20118;-82
2023/01/12 10:53:04;;;;;;;7.88;4.60;;;;;;;6.61;89.98;101092.81;5010569;28;20061;-81
2023/01/12 10:55:37;;;;;;;8.35;5.45;;;;;;;6.62;89.87;101089.22;5010328;28;20193;-82
2023/01/12 10:58:02;;;;;;;;;;;;;;;6.61;89.54;101098.16;5011053;28;20044;-82
2023/01/12 11:00:28;;;;;;;9.13;6.60;;;;;;;6.50;89.16;101097.00;5010461;28;20012;-81
2023/01/12 11:02:54;;;;;;;9.02;5.43;;;;;;;6.34;89.10;101085.44;5010165;28;20030;-81
2023/01/12 11:05:37;;;;;;;12.77;4.90;;;;;;;6.50;88.25;101097.00;5010194;28;20120;-81
2023/01/12 11:08:26;;;;;;;10.07;5.05;;;;;;;6.41;88.10;101107.34;5010086;28;20030;-82
2023/01/12 11:10:51;;;;;;;11.05;5.35;;;;;;;6.32;88.03;101098.03;5009898;28;20128;-84
2023/01/12 11:13:36;;;;;;;12.73;5.57;;;;;;;6.29;88.60;101100.88;5009969;28;20037;-82
2023/01/12 11:16:15;;;;;;;10.95;5.60;;;;;;;6.32;88.66;101095.38;5009601;28;20052;-82
2023/01/12 11:18:49;;;;;;;12.27;5.53;;;;;;;6.32;87.88;101102.50;5009804;28;20036;-82
2023/01/12 11:21:21;;;;;;;8.25;4.97;;;;;;;6.15;87.89;101094.56;5009206;28;20033;-83
2023/01/12 11:24:10;;;;;;;8.20;5.53;;;;;;;6.19;87.99;101112.16;5009911;28;20186;-81
2023/01/12 11:27:09;;;;;;;12.40;7.60;;;;;;;6.18;88.30;101105.06;5009692;28;20029;-83
2023/01/12 11:29:42;;;;;;;9.68;5.53;;;;;;;6.03;87.46;101088.09;5032740;28;20474;-81
2023/01/12 11:32:29;;;;;;;7.32;4.57;;;;;;;6.08;88.12;101107.41;5112334;28;20036;-81
2023/01/12 11:35:05;;;;;;;10.07;4.65;;;;;;;6.09;88.26;101110.94;5112361;28;20399;-81
2023/01/12 11:37:36;;;;;;;9.02;4.30;;;;;;;6.05;87.68;101104.91;5112333;28;20034;-82
2023/01/12 11:40:12;;;;;;;11.68;5.82;;;;;;;5.97;87.87;101107.13;5112487;28;20072;-82
2023/01/12 11:45:33;;;;;;;9.85;5.10;;;;;;;5.90;88.33;101095.91;5112225;28;20528;-83
2023/01/12 11:48:05;;;;;;;9.45;5.30;;;;;;;5.81;88.75;101084.88;5112375;28;20119;-82
2023/01/12 11:50:36;;;;;;;11.27;6.05;;;;;;;5.74;89.05;101081.69;5112721;28;20156;-82
2023/01/12 11:53:04;;;;;;;9.73;5.75;;;;;;;5.66;89.39;101091.00;5114156;28;20114;-82
2023/01/12 11:56:11;;;;;;;5.72;4.13;;;;;;;5.74;89.68;101083.47;5115011;28;20168;-82
2023/01/12 11:59:13;;;;;;;9.90;5.00;;;;;;;5.69;89.97;101080.19;5115653;28;20024;-82
2023/01/12 12:01:56;;;;;;;13.63;6.00;;;;;;;5.72;89.80;101080.88;5112203;28;20032;-83
2023/01/12 12:04:33;;;;;;;13.25;5.40;;;;;;;5.77;89.92;101083.31;5113232;28;20046;-83
2023/01/12 12:07:10;;;;;;;7.13;4.03;;;;;;;5.63;89.53;101086.72;5111930;28;20063;-82
2023/01/12 12:10:10;;;;;;;8.38;5.22;;;;;;;5.55;89.18;101088.06;5111478;28;20027;-83
2023/01/12 12:13:07;;;;;;;11.73;6.03;;;;;;;5.60;89.64;101094.00;5111486;28;20096;-83
2023/01/12 12:15:54;;;;;;;13.05;7.68;;;;;;;5.66;89.65;101099.88;5008873;28;20034;-82
2023/01/12 12:18:26;;;;;;;13.63;6.40;;;;;;;5.70;89.61;101089.91;5008661;28;20034;-83